createdAt,value
2018-07-25T00:02:08.331Z,63.40
2018-07-25T00:04:39.637Z,63.20
2018-07-25T00:07:09.947Z,62.70
2018-07-25T00:09:40.301Z,62.40
2018-07-25T00:12:10.720Z,62.30
2018-07-25T00:14:41.060Z,62.70
2018-07-25T00:17:11.296Z,63.60
2018-07-25T00:19:41.973Z,64.50
2018-07-25T00:22:12.359Z,64.90
2018-07-25T00:24:42.655Z,65.10
2018-07-25T00:27:12.920Z,65.60
2018-07-25T00:29:43.320Z,65.80
2018-07-25T00:32:13.521Z,66.20
2018-07-25T00:34:43.795Z,66.50
2018-07-25T00:37:14.040Z,66.70
2018-07-25T00:39:44.718Z,67.00
2018-07-25T00:42:14.932Z,67.20
2018-07-25T00:44:45.200Z,67.80
2018-07-25T00:47:15.481Z,68.30
2018-07-25T00:49:45.707Z,68.60
2018-07-25T00:57:15.478Z,70.00
2018-07-25T00:59:45.756Z,69.80
2018-07-25T01:02:16.097Z,70.10
2018-07-25T01:04:46.274Z,70.40
2018-07-25T01:07:16.525Z,70.60
2018-07-25T01:09:47.307Z,71.10
2018-07-25T01:12:17.623Z,71.70
2018-07-25T01:14:47.873Z,72.30
2018-07-25T01:17:18.216Z,71.80
2018-07-25T01:19:48.612Z,71.80
2018-07-25T01:22:18.832Z,71.90
2018-07-25T01:24:48.980Z,72.20
2018-07-25T01:27:19.353Z,72.30
2018-07-25T01:29:49.627Z,72.70
2018-07-25T01:32:20.045Z,72.60
2018-07-25T01:34:50.423Z,72.70
2018-07-25T01:37:20.811Z,73.80
2018-07-25T01:39:52.418Z,72.90
2018-07-25T01:42:22.948Z,73.10
2018-07-25T01:44:53.221Z,73.30
2018-07-25T01:47:23.555Z,73.40
2018-07-25T01:49:53.852Z,73.80
2018-07-25T01:52:25.132Z,73.90
2018-07-25T01:54:55.614Z,74.30
2018-07-25T01:57:26.321Z,74.50
2018-07-25T01:59:57.923Z,74.40
2018-07-25T02:02:29.416Z,74.50
2018-07-25T02:04:59.703Z,75.00
2018-07-25T02:07:30.078Z,75.20
2018-07-25T02:10:00.902Z,75.60
2018-07-25T02:12:31.221Z,75.70
2018-07-25T02:15:01.488Z,75.70
2018-07-25T02:17:31.775Z,75.90
2018-07-25T02:20:02.016Z,76.40
2018-07-25T02:22:32.295Z,76.40
2018-07-25T02:25:02.529Z,76.50
2018-07-25T02:27:32.845Z,76.80
2018-07-25T02:30:03.074Z,76.70
2018-07-25T02:32:33.371Z,77.00
2018-07-25T02:35:03.564Z,77.10
2018-07-25T02:37:33.966Z,77.20
2018-07-25T02:40:04.267Z,77.30
2018-07-25T02:42:34.527Z,77.30
2018-07-25T02:45:04.734Z,77.70
2018-07-25T02:47:34.875Z,77.60
2018-07-25T02:50:05.728Z,77.80
2018-07-25T02:52:35.928Z,77.90
2018-07-25T02:55:06.552Z,78.00
2018-07-25T02:57:36.713Z,78.10
2018-07-25T03:00:07.843Z,78.10
2018-07-25T03:02:37.978Z,78.20
2018-07-25T03:05:08.295Z,78.40
2018-07-25T03:07:38.500Z,78.60
2018-07-25T03:11:33.049Z,78.80
2018-07-25T03:14:03.175Z,78.80
2018-07-25T03:16:33.949Z,78.80
2018-07-25T03:19:04.080Z,78.80
2018-07-25T03:21:34.274Z,78.80
2018-07-25T03:24:04.708Z,79.80
2018-07-25T03:26:34.937Z,78.90
2018-07-25T03:29:05.191Z,78.90
2018-07-25T03:34:05.133Z,79.40
2018-07-25T03:36:35.261Z,79.30
2018-07-25T03:39:06.892Z,79.40
2018-07-25T03:41:37.294Z,79.40
2018-07-25T03:44:07.367Z,79.40
2018-07-25T03:46:37.419Z,79.30
2018-07-25T03:49:07.441Z,79.50
2018-07-25T03:51:37.536Z,79.80
2018-07-25T03:54:07.702Z,79.70
2018-07-25T03:56:37.771Z,79.90
2018-07-25T03:59:07.884Z,79.60
2018-07-25T04:01:38.000Z,79.70
2018-07-25T04:04:08.046Z,79.50
2018-07-25T04:06:38.155Z,79.80
2018-07-25T04:09:10.296Z,80.40
2018-07-25T04:11:40.385Z,79.80
2018-07-25T04:14:10.432Z,79.80
2018-07-25T04:16:40.994Z,79.80
2018-07-25T04:19:11.085Z,79.90
2018-07-25T04:21:41.212Z,80.60
2018-07-25T04:24:11.310Z,79.80
2018-07-25T04:26:41.543Z,80.00
2018-07-25T04:48:42.397Z,80.30
2018-07-25T04:51:12.411Z,80.30
2018-07-25T04:53:42.408Z,81.20
2018-07-25T04:56:12.600Z,81.40
2018-07-25T05:01:12.225Z,81.20
2018-07-25T05:03:42.257Z,81.10
2018-07-25T05:06:12.282Z,81.00
2018-07-25T05:11:12.526Z,80.40
2018-07-25T05:13:42.501Z,79.80
2018-07-25T05:16:12.559Z,79.40
2018-07-25T05:18:42.575Z,79.00
2018-07-25T05:21:12.578Z,79.30
2018-07-25T05:23:42.585Z,78.60
2018-07-25T05:26:12.634Z,78.70
2018-07-25T05:28:42.699Z,78.20
2018-07-25T05:31:12.725Z,77.70
2018-07-25T05:33:42.791Z,77.90
2018-07-25T05:36:12.898Z,78.10
2018-07-25T05:38:44.974Z,77.60
2018-07-25T05:41:15.172Z,77.50
2018-07-25T05:43:45.345Z,77.00
2018-07-25T05:46:15.387Z,76.80
2018-07-25T05:48:45.504Z,77.70
2018-07-25T05:51:15.567Z,76.70
2018-07-25T05:53:46.448Z,76.20
2018-07-25T05:56:16.610Z,74.90
2018-07-25T05:58:47.038Z,74.90
2018-07-25T06:01:17.161Z,76.80
2018-07-25T06:03:47.250Z,77.20
2018-07-25T06:06:17.383Z,77.20
2018-07-25T06:08:47.492Z,75.30
2018-07-25T06:11:17.589Z,74.70
2018-07-25T06:13:47.747Z,74.60
2018-07-25T06:16:17.981Z,74.40
2018-07-25T06:21:17.790Z,74.60
2018-07-25T06:23:47.905Z,75.20
2018-07-25T06:26:17.922Z,73.90
2018-07-25T06:28:48.060Z,72.00
2018-07-25T06:31:18.218Z,72.60
2018-07-25T06:33:48.304Z,71.40
2018-07-25T06:36:18.416Z,72.30
2018-07-25T06:38:48.532Z,70.40
2018-07-25T06:41:18.617Z,68.70
2018-07-25T06:43:48.742Z,68.00
2018-07-25T06:46:19.013Z,68.70
2018-07-25T06:48:49.122Z,68.80
2018-07-25T06:51:19.158Z,63.90
2018-07-25T06:53:49.252Z,67.00
2018-07-25T06:56:19.316Z,66.40
2018-07-25T06:58:49.385Z,66.00
2018-07-25T07:01:19.428Z,64.50
2018-07-25T07:03:49.635Z,64.90
2018-07-25T07:06:19.747Z,64.70
2018-07-25T07:08:49.856Z,60.00
2018-07-25T07:13:50.246Z,54.80
2018-07-25T07:16:20.393Z,48.90
2018-07-25T07:18:50.514Z,50.10
2018-07-25T07:21:20.610Z,50.00
2018-07-25T07:23:50.681Z,47.90
2018-07-25T07:26:20.798Z,47.00
2018-07-25T07:28:50.902Z,51.10
2018-07-25T07:31:21.047Z,47.20
2018-07-25T07:33:51.109Z,48.00
2018-07-25T07:36:21.136Z,47.40
2018-07-25T07:38:51.250Z,46.70
2018-07-25T07:41:21.383Z,43.60
2018-07-25T07:43:51.455Z,44.90
2018-07-25T07:46:21.558Z,45.30
2018-07-25T07:48:51.682Z,43.50
2018-07-25T07:51:21.731Z,44.60
2018-07-25T07:58:51.160Z,47.10
2018-07-25T08:01:21.251Z,44.30
2018-07-25T08:03:51.390Z,43.30
2018-07-25T08:06:21.496Z,45.40
2018-07-25T08:08:51.686Z,46.40
2018-07-25T08:13:51.763Z,43.30
2018-07-25T08:16:21.811Z,44.40
2018-07-25T08:18:51.878Z,43.50
2018-07-25T08:21:21.898Z,44.80
2018-07-25T08:23:51.991Z,47.00
2018-07-25T08:26:22.084Z,46.20
2018-07-25T08:28:52.174Z,45.20
2018-07-25T08:36:21.451Z,44.20
2018-07-25T08:38:51.565Z,44.60
2018-07-25T08:41:21.714Z,43.70
2018-07-25T08:43:51.842Z,43.10
2018-07-25T08:46:21.939Z,45.00
2018-07-25T08:48:52.034Z,42.70
2018-07-25T08:53:51.820Z,44.50
2018-07-25T08:56:21.984Z,42.40
2018-07-25T09:01:22.066Z,40.90
2018-07-25T09:03:52.159Z,41.80
2018-07-25T09:11:28.415Z,45.50
2018-07-25T09:13:58.970Z,42.60
2018-07-25T09:16:29.082Z,41.90
2018-07-25T09:18:59.217Z,41.80
2018-07-25T09:21:29.911Z,42.10
2018-07-25T09:23:59.965Z,38.90
2018-07-25T09:26:30.070Z,39.50
2018-07-25T09:29:00.272Z,38.20
2018-07-25T09:31:30.463Z,39.50
2018-07-25T09:36:30.223Z,39.40
2018-07-25T09:39:00.298Z,39.60
2018-07-25T09:41:30.478Z,38.90
2018-07-25T09:44:00.625Z,37.10
2018-07-25T09:46:30.755Z,38.50
2018-07-25T09:49:00.849Z,37.50
2018-07-25T09:51:30.988Z,43.00
2018-07-25T09:54:01.083Z,42.80
2018-07-25T09:56:31.779Z,39.90
2018-07-25T09:59:02.192Z,40.40
2018-07-25T10:01:32.367Z,40.10
2018-07-25T10:04:02.491Z,38.60
2018-07-25T10:06:32.682Z,38.50
2018-07-25T10:09:02.913Z,38.60
2018-07-25T10:11:33.090Z,38.30
2018-07-25T10:14:03.175Z,39.00
2018-07-25T10:16:33.515Z,40.10
2018-07-25T10:19:03.749Z,41.10
2018-07-25T10:21:33.850Z,39.60
2018-07-25T10:24:03.960Z,41.10
2018-07-25T10:29:03.815Z,43.70
2018-07-25T10:31:33.948Z,42.30
2018-07-25T10:34:04.093Z,42.50
2018-07-25T10:36:34.320Z,41.30
2018-07-25T10:39:06.624Z,42.20
2018-07-25T10:41:36.747Z,41.40
2018-07-25T10:44:08.405Z,43.40
2018-07-25T10:46:43.038Z,42.00
2018-07-25T10:49:13.090Z,41.10
2018-07-25T10:51:43.194Z,41.00
2018-07-25T10:54:13.255Z,40.80
2018-07-25T10:56:43.394Z,42.90
2018-07-25T10:59:13.531Z,42.40
2018-07-25T11:01:43.687Z,41.60
2018-07-25T11:06:43.530Z,39.80
2018-07-25T11:11:43.368Z,44.00
2018-07-25T11:14:13.447Z,42.80
2018-07-25T11:16:43.552Z,43.40
2018-07-25T11:19:13.747Z,43.70
2018-07-25T11:21:43.820Z,39.70
2018-07-25T11:24:14.042Z,42.90
2018-07-25T11:26:44.153Z,41.30
2018-07-25T11:29:14.701Z,43.30
2018-07-25T11:31:44.962Z,42.50
2018-07-25T11:34:19.913Z,43.70
2018-07-25T11:36:50.086Z,41.10
2018-07-25T11:39:20.163Z,38.70
2018-07-25T11:41:50.403Z,36.70
2018-07-25T11:44:20.540Z,37.10
2018-07-25T11:46:50.721Z,39.00
2018-07-25T11:49:21.174Z,38.20
2018-07-25T11:51:51.935Z,36.80
2018-07-25T11:54:22.385Z,37.60
2018-07-25T11:56:52.554Z,36.90
2018-07-25T11:59:23.306Z,40.80
2018-07-25T12:01:53.523Z,38.10
2018-07-25T12:04:24.052Z,37.90
2018-07-25T12:06:54.562Z,36.20
2018-07-25T12:09:24.883Z,35.20
2018-07-25T12:11:55.301Z,37.10
2018-07-25T12:14:25.775Z,37.70
2018-07-25T12:19:26.371Z,36.70
2018-07-25T12:21:56.948Z,35.40
2018-07-25T12:24:28.297Z,38.80
2018-07-25T12:26:59.430Z,36.90
2018-07-25T12:29:29.573Z,39.90
2018-07-25T12:32:00.269Z,39.40
2018-07-25T12:34:30.530Z,37.80
2018-07-25T12:37:00.856Z,39.00
2018-07-25T12:39:30.958Z,38.40
2018-07-25T12:42:01.145Z,39.20
2018-07-25T12:44:32.030Z,38.40
2018-07-25T12:47:02.436Z,39.20
2018-07-25T12:49:32.767Z,39.30
2018-07-25T12:52:03.201Z,39.10
2018-07-25T12:54:33.564Z,38.70
2018-07-25T12:57:03.876Z,40.00
2018-07-25T12:59:34.214Z,39.00
2018-07-25T13:02:04.597Z,40.30
2018-07-25T13:04:34.880Z,40.30
2018-07-25T13:07:05.242Z,39.40
2018-07-25T13:09:35.714Z,38.70
2018-07-25T13:12:06.065Z,37.80
2018-07-25T13:14:36.224Z,39.80
2018-07-25T13:17:06.556Z,38.90
2018-07-25T13:19:37.442Z,37.20
2018-07-25T13:22:11.710Z,37.00
2018-07-25T13:24:43.416Z,39.20
2018-07-25T13:27:13.584Z,37.90
2018-07-25T13:29:43.728Z,36.30
2018-07-25T13:32:13.900Z,38.90
2018-07-25T13:34:44.072Z,37.10
2018-07-25T13:37:14.163Z,36.70
2018-07-25T13:39:44.695Z,37.00
2018-07-25T13:42:15.563Z,35.30
2018-07-25T13:44:45.887Z,36.80
2018-07-25T13:49:47.857Z,38.30
2018-07-25T13:52:18.172Z,38.60
2018-07-25T13:54:48.444Z,38.40
2018-07-25T13:57:18.582Z,35.90
2018-07-25T13:59:48.916Z,35.10
2018-07-25T14:04:49.445Z,34.70
2018-07-25T14:07:19.627Z,33.80
2018-07-25T14:09:50.526Z,33.20
2018-07-25T14:12:20.853Z,34.40
2018-07-25T14:14:52.704Z,33.40
2018-07-25T14:17:22.976Z,34.40
2018-07-25T14:19:53.916Z,34.80
2018-07-25T14:22:26.323Z,34.50
2018-07-25T14:24:56.859Z,37.50
2018-07-25T14:27:27.156Z,35.10
2018-07-25T14:29:57.320Z,34.30
2018-07-25T14:32:27.542Z,35.70
2018-07-25T14:34:57.648Z,36.20
2018-07-25T14:37:27.871Z,33.40
2018-07-25T14:42:27.954Z,35.80
2018-07-25T14:44:58.122Z,36.10
2018-07-25T14:47:29.084Z,38.00
2018-07-25T14:49:59.905Z,36.80
2018-07-25T14:52:30.230Z,37.40
2018-07-25T14:55:00.397Z,36.80
2018-07-25T14:57:30.579Z,38.00
2018-07-25T15:00:00.910Z,38.30
2018-07-25T15:02:31.082Z,37.60
2018-07-25T15:05:01.258Z,38.50
2018-07-25T15:07:31.482Z,38.20
2018-07-25T15:10:01.656Z,37.50
2018-07-25T15:12:36.807Z,38.10
2018-07-25T15:15:07.213Z,37.20
2018-07-25T15:20:09.481Z,36.60
2018-07-25T15:22:40.302Z,36.20
2018-07-25T15:25:10.663Z,35.60
2018-07-25T15:27:40.895Z,35.40
2018-07-25T15:30:12.271Z,37.80
2018-07-25T15:32:42.537Z,37.30
2018-07-25T15:35:12.708Z,36.70
2018-07-25T15:37:43.044Z,36.90
2018-07-25T15:40:13.431Z,38.00
2018-07-25T15:42:43.568Z,37.20
2018-07-25T15:45:13.758Z,36.30
2018-07-25T15:47:43.923Z,38.00
2018-07-25T15:50:14.216Z,35.50
2018-07-25T15:52:44.392Z,36.80
2018-07-25T15:55:14.509Z,35.50
2018-07-25T15:57:44.730Z,34.40
2018-07-25T16:00:14.893Z,34.80
2018-07-25T16:02:45.173Z,35.30
2018-07-25T16:05:15.380Z,37.20
2018-07-25T16:07:45.465Z,35.80
2018-07-25T16:10:15.652Z,35.40
2018-07-25T16:15:15.538Z,36.60
2018-07-25T16:17:45.630Z,34.60
2018-07-25T16:20:15.783Z,35.90
2018-07-25T16:22:45.902Z,35.20
2018-07-25T16:25:15.966Z,36.20
2018-07-25T16:27:46.096Z,35.40
2018-07-25T16:30:16.295Z,36.40
2018-07-25T16:32:46.355Z,36.60
2018-07-25T16:35:16.446Z,36.00
2018-07-25T16:37:46.534Z,36.00
2018-07-25T16:40:16.707Z,36.60
2018-07-25T16:42:46.763Z,35.50
2018-07-25T16:45:17.294Z,35.60
2018-07-25T16:47:47.376Z,35.80
2018-07-25T16:50:17.449Z,36.60
2018-07-25T16:52:47.590Z,36.90
2018-07-25T16:55:17.901Z,36.80
2018-07-25T16:57:48.297Z,36.80
2018-07-25T17:02:58.998Z,36.80
2018-07-25T17:05:29.272Z,37.20
2018-07-25T17:07:59.355Z,37.30
2018-07-25T17:10:29.515Z,37.50
2018-07-25T17:12:59.703Z,37.00
2018-07-25T17:15:29.828Z,37.30
2018-07-25T17:17:59.945Z,37.00
2018-07-25T17:20:30.155Z,36.30
2018-07-25T17:23:00.229Z,37.40
2018-07-25T17:25:30.315Z,37.60
2018-07-25T17:28:00.394Z,36.20
2018-07-25T17:30:30.475Z,37.40
2018-07-25T17:33:00.575Z,36.70
2018-07-25T17:35:30.724Z,37.40
2018-07-25T17:38:00.833Z,36.30
2018-07-25T17:40:31.114Z,37.30
2018-07-25T17:43:01.646Z,36.80
2018-07-25T17:45:31.891Z,37.50
2018-07-25T17:48:02.122Z,36.90
2018-07-25T17:53:01.966Z,38.10
2018-07-25T17:55:32.385Z,37.90
2018-07-25T17:58:02.690Z,38.00
2018-07-25T18:00:32.751Z,37.30
2018-07-25T18:03:03.076Z,39.10
2018-07-25T18:08:03.031Z,39.40
2018-07-25T18:10:33.073Z,39.40
2018-07-25T18:13:08.416Z,39.60
2018-07-25T18:15:38.515Z,39.90
2018-07-25T18:18:08.855Z,39.60
2018-07-25T18:20:39.017Z,39.90
2018-07-25T18:23:09.317Z,40.30
2018-07-25T18:25:39.718Z,40.60
2018-07-25T18:30:39.590Z,40.90
2018-07-25T18:33:09.852Z,41.40
2018-07-25T18:35:40.005Z,41.80
2018-07-25T18:40:39.997Z,42.30
2018-07-25T18:43:10.168Z,42.80
2018-07-25T18:45:40.279Z,43.40
2018-07-25T18:48:10.496Z,43.80
2018-07-25T18:50:40.619Z,43.20
2018-07-25T18:53:10.765Z,43.90
2018-07-25T18:58:10.637Z,43.80
2018-07-25T19:00:43.469Z,44.30
2018-07-25T19:03:14.214Z,44.80
2018-07-25T19:05:44.284Z,43.80
2018-07-25T19:08:14.402Z,44.40
2018-07-25T19:10:44.509Z,45.50
2018-07-25T19:13:19.694Z,45.00
2018-07-25T19:15:49.767Z,45.00
2018-07-25T19:18:19.925Z,45.50
2018-07-25T19:20:50.089Z,45.90
2018-07-25T19:23:20.382Z,45.90
2018-07-25T19:25:50.494Z,46.20
2018-07-25T19:28:20.971Z,45.80
2018-07-25T19:30:51.013Z,45.80
2018-07-25T19:33:21.293Z,46.00
2018-07-25T19:35:51.388Z,46.40
2018-07-25T19:38:21.659Z,46.10
2018-07-25T19:40:51.934Z,46.50
2018-07-25T19:45:52.242Z,46.80
2018-07-25T19:48:22.590Z,47.10
2018-07-25T19:50:52.706Z,49.10
2018-07-25T19:53:22.864Z,50.50
2018-07-25T19:55:52.928Z,50.70
2018-07-25T19:58:23.017Z,51.10
2018-07-25T20:00:53.205Z,51.40
2018-07-25T20:03:23.654Z,52.10
2018-07-25T20:08:23.988Z,53.10
2018-07-25T20:13:23.862Z,53.40
2018-07-25T20:15:59.345Z,53.90
2018-07-25T20:18:30.398Z,55.20
2018-07-25T20:21:00.585Z,55.20
2018-07-25T20:23:30.774Z,55.50
2018-07-25T20:26:00.850Z,55.80
2018-07-25T20:28:30.955Z,55.90
2018-07-25T20:31:01.880Z,56.10
2018-07-25T20:33:31.990Z,56.50
2018-07-25T20:36:02.134Z,56.50
2018-07-25T20:38:32.242Z,57.20
2018-07-25T20:41:02.390Z,57.90
2018-07-25T20:43:32.537Z,57.60
2018-07-25T20:46:02.633Z,58.10
2018-07-25T20:48:34.282Z,58.00
2018-07-25T20:51:04.736Z,58.60
2018-07-25T20:53:35.070Z,58.80
2018-07-25T20:56:05.442Z,58.50
2018-07-25T20:58:35.819Z,58.90
2018-07-25T21:01:06.261Z,58.80
2018-07-25T21:03:36.627Z,58.90
2018-07-25T21:06:06.945Z,58.60
2018-07-25T21:08:37.361Z,58.40
2018-07-25T21:11:07.679Z,58.90
2018-07-25T21:13:38.093Z,59.80
2018-07-25T21:16:08.502Z,59.40
2018-07-25T21:18:38.803Z,59.40
2018-07-25T21:21:09.378Z,58.90
2018-07-25T21:23:39.772Z,59.10
2018-07-25T21:28:40.036Z,59.90
2018-07-25T21:31:10.291Z,59.90
2018-07-25T21:33:40.614Z,59.90
2018-07-25T21:36:10.991Z,59.00
2018-07-25T21:38:41.368Z,59.80
2018-07-25T21:41:11.653Z,60.40
2018-07-25T21:43:41.929Z,61.40
2018-07-25T21:46:12.261Z,61.00
2018-07-25T21:48:42.523Z,59.60
2018-07-25T21:51:12.790Z,59.70
2018-07-25T21:53:43.085Z,59.30
2018-07-25T21:58:43.420Z,60.00
2018-07-25T22:01:17.648Z,59.90
2018-07-25T22:03:48.039Z,59.20
2018-07-25T22:06:19.143Z,59.90
2018-07-25T22:11:18.869Z,59.80
2018-07-25T22:13:54.109Z,59.70
2018-07-25T22:16:25.148Z,59.20
2018-07-25T22:18:55.565Z,59.60
2018-07-25T22:21:25.647Z,60.20
2018-07-25T22:23:55.731Z,60.80
2018-07-25T22:26:25.778Z,59.40
2018-07-25T22:28:56.832Z,61.30
2018-07-25T22:31:26.994Z,60.60
2018-07-25T22:33:57.017Z,60.10
2018-07-25T22:36:27.938Z,60.10
2018-07-25T22:38:57.994Z,59.90
2018-07-25T22:41:28.137Z,59.80
2018-07-25T22:46:27.935Z,59.80
2018-07-25T22:48:58.031Z,60.20
2018-07-25T22:51:28.251Z,61.30
2018-07-25T22:53:58.388Z,62.10
2018-07-25T22:56:28.506Z,61.70
2018-07-25T22:58:59.111Z,61.90
2018-07-25T23:01:29.253Z,61.70
2018-07-25T23:03:59.365Z,61.40
2018-07-25T23:06:29.538Z,60.80
2018-07-25T23:08:59.665Z,61.30
2018-07-25T23:11:29.787Z,61.70
2018-07-25T23:13:59.895Z,61.30
2018-07-25T23:16:30.056Z,60.80
2018-07-25T23:19:00.121Z,61.40
2018-07-25T23:21:30.288Z,61.90
2018-07-25T23:24:00.397Z,61.70
2018-07-25T23:26:30.563Z,60.60
2018-07-25T23:29:00.616Z,61.50
2018-07-25T23:31:30.722Z,62.10
2018-07-25T23:34:00.784Z,62.10
2018-07-25T23:36:30.930Z,61.30
2018-07-25T23:41:30.743Z,60.80
2018-07-25T23:44:00.836Z,60.90
2018-07-25T23:46:31.003Z,61.90
2018-07-25T23:49:01.053Z,61.50
2018-07-25T23:51:31.252Z,61.30
2018-07-25T23:54:01.412Z,62.20
2018-07-25T23:56:31.616Z,61.50
2018-07-25T23:59:01.731Z,61.90
